LFLSLFLL

Guest
Details From LFLS - St Geoirs
To LFLL - Lyon Saint Exupery
Flight Number -
Tags Routegen Generated
Created
Modified
Stats Distance 32 nm / 59 km
Max Altitude 100 ft / 30 m
Waypoints 5
Social Downloads 0
Likes 0
Share VATSIM

Download

Looking for another format? Having issues loading an existing format? Contact us
Advertisement - Login to hide

Notes

Departing runway 9 LFLS. Arriving runway 17 LFLL.

Route

LFLS +45.36_+005.45 +45.46_+005.28 +45.57_+005.11 LFLL

ID Type Via Altitude (ft/m) Position (lat/lon) Dist (leg/tot) Name
O LFLS APT - 0 / 0 45.36267 / 5.34875 - / 0 nm
+45.36_+005.45 DME - 100 / 30 45.36232 / 5.45175 4 / 4 nm
+45.46_+005.28 DME - 100 / 30 45.46435 / 5.27854 9 / 13 nm
+45.57_+005.11 DME - 100 / 30 45.56638 / 5.10534 9 / 23 nm
O LFLL APT - 0 / 0 45.71072 / 5.09002 8 / 32 nm

Altitude Profile

Advertisement - Login to hide

LFLS

Details ICAO LFLS (GNB)
Name Grenoble Isere Airport
Region France
Timezone Europe/Paris (UTC+2.0)
Stats Elevation 1,301 ft / 397 m (AMSL)
Location 45.362500° 5.326270°
Runways 2
Magnetic Variation 1.656° E

METAR

LFLS 180500Z AUTO VRB02KT 8000 NSC 10/09 Q1016 TEMPO 2000 BCFG

Decode

TAF

TAF LFLS 180200Z 1803/1903 09005KT 7000 NSC PROB30 TEMPO 1803/1807 2000 BCFG

Decode

Departure Runways

ID Width Length Bearing (true/mag) Surface Threshold Overrun Markings Lighting
09 148 ft / 45 m 10,016 ft / 3,053 m 90.21° / 88.55° CONCRETE 0 ft / 0 m 0 ft / 0 m PREC-APP CENTERLINE EDGE THRESHOLD CALVERT
09R 164 ft / 50 m 2,956 ft / 901 m 90.18° / 88.52° GRASS 0 ft / 0 m 0 ft / 0 m NONE CENTERLINE EDGE THRESHOLD
27 148 ft / 45 m 10,016 ft / 3,053 m 270.24° / 268.58° CONCRETE 0 ft / 0 m 0 ft / 0 m PREC-APP CENTERLINE EDGE THRESHOLD CALVERT
27L 164 ft / 50 m 2,956 ft / 901 m 270.19° / 268.53° GRASS 0 ft / 0 m 0 ft / 0 m NONE CENTERLINE EDGE THRESHOLD

LFLL

Details ICAO LFLL (LYS)
Name Lyon Saint Exupery
Region France
Timezone Europe/Paris (UTC+2.0)
Stats Elevation 818 ft / 249 m (AMSL)
Location 45.725800° 5.090730°
Runways 2
Magnetic Variation 1.590° E

METAR

LFLL 180500Z 27002KT 8000 NSC 10/09 Q1016 NOSIG

Decode

TAF

TAF LFLL 172300Z 1800/1906 VRB02KT CAVOK TEMPO 1809/1818 36007KT= TAF LFPG 172300Z 1800/1906 02012KT 9000 NSC TX20/1814Z TN10/1906Z

Decode

Destination Runways

ID Width Length Bearing (true/mag) Surface Threshold Overrun Markings Lighting
17L 148 ft / 45 m 8,766 ft / 2,672 m 175.14° / 173.55° ASPHALT 0 ft / 0 m 59 ft / 18 m PREC-APP CENTERLINE EDGE THRESHOLD RAIL REIL-OMNI
17R 145 ft / 44 m 13,135 ft / 4,003 m 175.14° / 173.55° ASPHALT 0 ft / 0 m 190 ft / 58 m PREC-APP CENTERLINE EDGE THRESHOLD RAIL REIL-OMNI
35L 145 ft / 44 m 13,135 ft / 4,003 m 355.14° / 353.56° ASPHALT 0 ft / 0 m 184 ft / 56 m PREC-APP CENTERLINE EDGE THRESHOLD CALVERT TDZ REIL-OMNI
35R 148 ft / 45 m 8,766 ft / 2,672 m 355.14° / 353.55° ASPHALT 0 ft / 0 m 62 ft / 19 m PREC-APP CENTERLINE EDGE THRESHOLD CALVERT TDZ REIL-OMNI

Approach Navaids

Runway Type Ident Frequency Range Bearing (true/mag) Slope Elevation
17L LOC-ILS LSS 109.10 MHz 25 nm / 46 km 175.14° / 173.55 ° - 818 ft / 249 m (AMSL)
17L GS LSS 109.10 MHz 25 nm / 46 km 175.14° / 173.55 ° 3.00° 818 ft / 249 m (AMSL)
17L DME LSS 109.10 MHz 18 nm / 33 km - - 775 ft / 236 m (AMSL)
35L OM OM - - 355.16° / 353.57 ° - 937 ft / 286 m (AMSL)
35L GS SAN 110.75 MHz 25 nm / 46 km 355.15° / 353.56 ° 3.00° 818 ft / 249 m (AMSL)
35L DME SAN 110.75 MHz 18 nm / 33 km - - 810 ft / 247 m (AMSL)
35L LOC-ILS SAN 110.75 MHz 25 nm / 46 km 355.15° / 353.56 ° - 818 ft / 249 m (AMSL)
35R LOC-ILS LSN 111.50 MHz 25 nm / 46 km 355.14° / 353.55 ° - 818 ft / 249 m (AMSL)
35R DME LSN 111.50 MHz 18 nm / 33 km - - 812 ft / 247 m (AMSL)
35R GS LSN 111.50 MHz 25 nm / 46 km 355.14° / 353.55 ° 3.00° 818 ft / 249 m (AMSL)

Popular Alternatives